sensor_id;sensor_type;location;lat;lon;timestamp;P1;durP1;ratioP1;P2;durP2;ratioP2
21301;SDS011;10810;48.270;9.996;2024-01-10T00:02:01;33.87;;;8.57;;
21301;SDS011;10810;48.270;9.996;2024-01-10T00:13:10;28.53;;;8.13;;
21301;SDS011;10810;48.270;9.996;2024-01-10T00:15:41;32.73;;;8.67;;
21301;SDS011;10810;48.270;9.996;2024-01-10T00:18:15;29.40;;;8.77;;
21301;SDS011;10810;48.270;9.996;2024-01-10T00:20:55;26.73;;;7.87;;
21301;SDS011;10810;48.270;9.996;2024-01-10T00:23:34;33.60;;;9.03;;
21301;SDS011;10810;48.270;9.996;2024-01-10T00:26:46;28.57;;;9.40;;
21301;SDS011;10810;48.270;9.996;2024-01-10T00:32:16;29.87;;;8.93;;
21301;SDS011;10810;48.270;9.996;2024-01-10T00:35:05;30.20;;;9.03;;
21301;SDS011;10810;48.270;9.996;2024-01-10T00:37:34;23.57;;;7.83;;
21301;SDS011;10810;48.270;9.996;2024-01-10T00:40:09;26.23;;;8.57;;
21301;SDS011;10810;48.270;9.996;2024-01-10T00:42:54;27.70;;;8.07;;
21301;SDS011;10810;48.270;9.996;2024-01-10T00:47:26;30.20;;;9.13;;
21301;SDS011;10810;48.270;9.996;2024-01-10T00:51:23;30.63;;;9.00;;
21301;SDS011;10810;48.270;9.996;2024-01-10T00:53:54;31.27;;;8.40;;
21301;SDS011;10810;48.270;9.996;2024-01-10T00:57:11;29.90;;;8.93;;
21301;SDS011;10810;48.270;9.996;2024-01-10T00:59:15;27.77;;;8.70;;
21301;SDS011;10810;48.270;9.996;2024-01-10T01:01:43;39.40;;;9.90;;
21301;SDS011;10810;48.270;9.996;2024-01-10T01:18:48;25.43;;;8.90;;
21301;SDS011;10810;48.270;9.996;2024-01-10T01:24:14;29.80;;;8.83;;
21301;SDS011;10810;48.270;9.996;2024-01-10T01:26:42;27.90;;;8.73;;
21301;SDS011;10810;48.270;9.996;2024-01-10T01:29:10;33.87;;;10.13;;
21301;SDS011;10810;48.270;9.996;2024-01-10T01:31:37;27.30;;;8.00;;
21301;SDS011;10810;48.270;9.996;2024-01-10T01:34:10;29.20;;;8.37;;
21301;SDS011;10810;48.270;9.996;2024-01-10T01:36:37;27.80;;;9.73;;
21301;SDS011;10810;48.270;9.996;2024-01-10T01:39:47;33.50;;;9.50;;
21301;SDS011;10810;48.270;9.996;2024-01-10T01:42:13;28.50;;;9.90;;
21301;SDS011;10810;48.270;9.996;2024-01-10T01:47:44;29.20;;;9.30;;
21301;SDS011;10810;48.270;9.996;2024-01-10T01:53:05;37.93;;;10.03;;
21301;SDS011;10810;48.270;9.996;2024-01-10T01:55:53;36.23;;;10.43;;
21301;SDS011;10810;48.270;9.996;2024-01-10T01:58:45;30.40;;;10.07;;
21301;SDS011;10810;48.270;9.996;2024-01-10T02:01:26;33.47;;;10.03;;
21301;SDS011;10810;48.270;9.996;2024-01-10T02:07:21;37.00;;;9.83;;
21301;SDS011;10810;48.270;9.996;2024-01-10T02:10:01;32.10;;;10.47;;
21301;SDS011;10810;48.270;9.996;2024-01-10T02:12:42;32.83;;;10.23;;
21301;SDS011;10810;48.270;9.996;2024-01-10T02:15:16;44.33;;;11.63;;
21301;SDS011;10810;48.270;9.996;2024-01-10T02:18:01;36.70;;;10.07;;
21301;SDS011;10810;48.270;9.996;2024-01-10T02:20:38;30.80;;;9.40;;
21301;SDS011;10810;48.270;9.996;2024-01-10T02:23:23;36.47;;;9.77;;
21301;SDS011;10810;48.270;9.996;2024-01-10T02:38:10;34.33;;;10.30;;
21301;SDS011;10810;48.270;9.996;2024-01-10T02:40:38;40.07;;;11.10;;
21301;SDS011;10810;48.270;9.996;2024-01-10T02:43:07;38.13;;;10.37;;
21301;SDS011;10810;48.270;9.996;2024-01-10T02:45:51;28.57;;;9.33;;
21301;SDS011;10810;48.270;9.996;2024-01-10T02:48:19;33.73;;;10.27;;
21301;SDS011;10810;48.270;9.996;2024-01-10T02:51:21;34.80;;;9.87;;
21301;SDS011;10810;48.270;9.996;2024-01-10T03:02:30;33.60;;;9.70;;
21301;SDS011;10810;48.270;9.996;2024-01-10T03:05:15;34.13;;;10.27;;
21301;SDS011;10810;48.270;9.996;2024-01-10T03:07:43;34.27;;;11.20;;
21301;SDS011;10810;48.270;9.996;2024-01-10T03:10:14;37.77;;;10.07;;
21301;SDS011;10810;48.270;9.996;2024-01-10T03:12:47;38.53;;;10.37;;
21301;SDS011;10810;48.270;9.996;2024-01-10T03:15:21;38.50;;;11.27;;
21301;SDS011;10810;48.270;9.996;2024-01-10T03:17:52;36.03;;;10.60;;
21301;SDS011;10810;48.270;9.996;2024-01-10T03:20:21;38.77;;;11.73;;
21301;SDS011;10810;48.270;9.996;2024-01-10T03:23:35;34.33;;;10.13;;
21301;SDS011;10810;48.270;9.996;2024-01-10T03:26:12;37.33;;;10.83;;
21301;SDS011;10810;48.270;9.996;2024-01-10T03:29:10;38.73;;;10.80;;
21301;SDS011;10810;48.270;9.996;2024-01-10T03:32:40;40.90;;;11.27;;
21301;SDS011;10810;48.270;9.996;2024-01-10T03:34:32;33.37;;;11.23;;
21301;SDS011;10810;48.270;9.996;2024-01-10T03:39:58;36.30;;;10.83;;
21301;SDS011;10810;48.270;9.996;2024-01-10T03:42:27;44.90;;;10.90;;
21301;SDS011;10810;48.270;9.996;2024-01-10T03:45:05;41.20;;;12.00;;
21301;SDS011;10810;48.270;9.996;2024-01-10T03:47:57;40.93;;;11.03;;
21301;SDS011;10810;48.270;9.996;2024-01-10T03:59:08;44.73;;;14.07;;
21301;SDS011;10810;48.270;9.996;2024-01-10T04:01:49;43.07;;;13.00;;
21301;SDS011;10810;48.270;9.996;2024-01-10T04:04:19;46.80;;;14.27;;
21301;SDS011;10810;48.270;9.996;2024-01-10T04:09:56;41.50;;;12.00;;
21301;SDS011;10810;48.270;9.996;2024-01-10T04:12:57;35.37;;;11.37;;
21301;SDS011;10810;48.270;9.996;2024-01-10T04:15:37;48.13;;;11.70;;
21301;SDS011;10810;48.270;9.996;2024-01-10T04:18:11;43.13;;;10.60;;
21301;SDS011;10810;48.270;9.996;2024-01-10T04:21:10;32.53;;;10.83;;
21301;SDS011;10810;48.270;9.996;2024-01-10T04:26:51;39.03;;;11.13;;
21301;SDS011;10810;48.270;9.996;2024-01-10T04:29:28;37.87;;;10.93;;
21301;SDS011;10810;48.270;9.996;2024-01-10T04:31:58;43.87;;;12.60;;
21301;SDS011;10810;48.270;9.996;2024-01-10T04:37:32;40.10;;;11.40;;
21301;SDS011;10810;48.270;9.996;2024-01-10T04:40:07;40.33;;;12.00;;
21301;SDS011;10810;48.270;9.996;2024-01-10T04:42:48;35.53;;;11.20;;
21301;SDS011;10810;48.270;9.996;2024-01-10T04:45:43;36.80;;;11.03;;
21301;SDS011;10810;48.270;9.996;2024-01-10T04:48:17;41.87;;;12.73;;
21301;SDS011;10810;48.270;9.996;2024-01-10T04:50:59;32.53;;;10.10;;
21301;SDS011;10810;48.270;9.996;2024-01-10T04:53:43;45.30;;;12.57;;
21301;SDS011;10810;48.270;9.996;2024-01-10T04:56:30;37.40;;;11.80;;
21301;SDS011;10810;48.270;9.996;2024-01-10T04:58:57;65.78;;;19.92;;
21301;SDS011;10810;48.270;9.996;2024-01-10T05:01:35;49.17;;;14.40;;
21301;SDS011;10810;48.270;9.996;2024-01-10T05:04:15;51.57;;;13.27;;
21301;SDS011;10810;48.270;9.996;2024-01-10T05:09:45;42.63;;;13.07;;
21301;SDS011;10810;48.270;9.996;2024-01-10T05:12:13;46.03;;;12.97;;
21301;SDS011;10810;48.270;9.996;2024-01-10T05:14:55;41.13;;;12.60;;
21301;SDS011;10810;48.270;9.996;2024-01-10T05:17:35;41.97;;;12.30;;
21301;SDS011;10810;48.270;9.996;2024-01-10T05:20:12;45.20;;;12.50;;
21301;SDS011;10810;48.270;9.996;2024-01-10T05:23:11;46.07;;;13.00;;
21301;SDS011;10810;48.270;9.996;2024-01-10T05:28:53;41.67;;;12.03;;
21301;SDS011;10810;48.270;9.996;2024-01-10T05:31:23;44.77;;;12.67;;
21301;SDS011;10810;48.270;9.996;2024-01-10T05:33:56;43.57;;;11.97;;
21301;SDS011;10810;48.270;9.996;2024-01-10T05:42:02;44.00;;;12.60;;
21301;SDS011;10810;48.270;9.996;2024-01-10T05:45:06;48.13;;;13.50;;
21301;SDS011;10810;48.270;9.996;2024-01-10T05:47:31;42.60;;;12.50;;
21301;SDS011;10810;48.270;9.996;2024-01-10T05:50:10;37.03;;;12.30;;
21301;SDS011;10810;48.270;9.996;2024-01-10T05:52:46;43.30;;;12.23;;
21301;SDS011;10810;48.270;9.996;2024-01-10T05:55:15;44.73;;;12.73;;
21301;SDS011;10810;48.270;9.996;2024-01-10T06:00:47;48.40;;;13.33;;
21301;SDS011;10810;48.270;9.996;2024-01-10T06:03:20;45.30;;;13.23;;
21301;SDS011;10810;48.270;9.996;2024-01-10T06:05:47;44.13;;;12.83;;
21301;SDS011;10810;48.270;9.996;2024-01-10T06:08:30;48.03;;;14.33;;
21301;SDS011;10810;48.270;9.996;2024-01-10T06:14:08;45.40;;;11.73;;
21301;SDS011;10810;48.270;9.996;2024-01-10T06:19:26;45.93;;;13.40;;
21301;SDS011;10810;48.270;9.996;2024-01-10T06:21:55;42.53;;;14.17;;
21301;SDS011;10810;48.270;9.996;2024-01-10T06:24:43;44.10;;;12.87;;
21301;SDS011;10810;48.270;9.996;2024-01-10T06:27:16;47.93;;;13.20;;
21301;SDS011;10810;48.270;9.996;2024-01-10T06:29:45;49.20;;;12.53;;
21301;SDS011;10810;48.270;9.996;2024-01-10T06:32:12;46.33;;;12.60;;
21301;SDS011;10810;48.270;9.996;2024-01-10T06:34:50;50.40;;;14.03;;
21301;SDS011;10810;48.270;9.996;2024-01-10T06:37:28;44.03;;;12.83;;
21301;SDS011;10810;48.270;9.996;2024-01-10T06:39:57;48.90;;;14.00;;
21301;SDS011;10810;48.270;9.996;2024-01-10T06:42:29;42.03;;;12.43;;
21301;SDS011;10810;48.270;9.996;2024-01-10T06:47:52;53.83;;;14.63;;
21301;SDS011;10810;48.270;9.996;2024-01-10T06:53:03;40.87;;;12.40;;
21301;SDS011;10810;48.270;9.996;2024-01-10T06:55:32;45.10;;;11.83;;
21301;SDS011;10810;48.270;9.996;2024-01-10T06:58:00;49.43;;;12.57;;
21301;SDS011;10810;48.270;9.996;2024-01-10T07:00:28;42.33;;;11.33;;
21301;SDS011;10810;48.270;9.996;2024-01-10T07:03:10;42.57;;;11.47;;
21301;SDS011;10810;48.270;9.996;2024-01-10T07:05:37;41.70;;;11.57;;
21301;SDS011;10810;48.270;9.996;2024-01-10T07:08:07;46.33;;;12.53;;
21301;SDS011;10810;48.270;9.996;2024-01-10T07:10:48;40.53;;;11.63;;
21301;SDS011;10810;48.270;9.996;2024-01-10T07:13:33;36.30;;;10.43;;
21301;SDS011;10810;48.270;9.996;2024-01-10T07:16:31;41.67;;;10.90;;
21301;SDS011;10810;48.270;9.996;2024-01-10T07:18:58;47.93;;;11.33;;
21301;SDS011;10810;48.270;9.996;2024-01-10T07:21:27;34.00;;;10.60;;
21301;SDS011;10810;48.270;9.996;2024-01-10T07:24:12;42.97;;;12.57;;
21301;SDS011;10810;48.270;9.996;2024-01-10T07:26:44;43.73;;;12.13;;
21301;SDS011;10810;48.270;9.996;2024-01-10T07:29:33;43.07;;;11.90;;
21301;SDS011;10810;48.270;9.996;2024-01-10T07:32:13;52.27;;;13.40;;
21301;SDS011;10810;48.270;9.996;2024-01-10T07:34:52;45.17;;;12.63;;
21301;SDS011;10810;48.270;9.996;2024-01-10T07:37:28;40.50;;;12.57;;
21301;SDS011;10810;48.270;9.996;2024-01-10T07:43:04;45.17;;;12.13;;
21301;SDS011;10810;48.270;9.996;2024-01-10T07:45:41;46.17;;;13.17;;
21301;SDS011;10810;48.270;9.996;2024-01-10T07:48:11;39.97;;;12.27;;
21301;SDS011;10810;48.270;9.996;2024-01-10T07:50:53;44.10;;;12.07;;
21301;SDS011;10810;48.270;9.996;2024-01-10T07:53:21;48.77;;;12.77;;
21301;SDS011;10810;48.270;9.996;2024-01-10T07:55:55;54.77;;;14.70;;
21301;SDS011;10810;48.270;9.996;2024-01-10T08:01:12;46.93;;;13.83;;
21301;SDS011;10810;48.270;9.996;2024-01-10T08:03:39;56.37;;;14.70;;
21301;SDS011;10810;48.270;9.996;2024-01-10T08:06:16;44.13;;;12.60;;
21301;SDS011;10810;48.270;9.996;2024-01-10T08:08:45;45.00;;;13.97;;
21301;SDS011;10810;48.270;9.996;2024-01-10T08:11:15;45.70;;;14.23;;
21301;SDS011;10810;48.270;9.996;2024-01-10T08:13:56;44.20;;;12.70;;
21301;SDS011;10810;48.270;9.996;2024-01-10T08:16:27;45.70;;;13.63;;
21301;SDS011;10810;48.270;9.996;2024-01-10T08:18:54;50.90;;;13.37;;
21301;SDS011;10810;48.270;9.996;2024-01-10T08:21:22;48.37;;;13.10;;
21301;SDS011;10810;48.270;9.996;2024-01-10T08:23:50;39.37;;;12.87;;
21301;SDS011;10810;48.270;9.996;2024-01-10T08:26:17;41.37;;;13.20;;
21301;SDS011;10810;48.270;9.996;2024-01-10T08:28:46;56.60;;;14.27;;
21301;SDS011;10810;48.270;9.996;2024-01-10T08:31:21;50.53;;;13.77;;
21301;SDS011;10810;48.270;9.996;2024-01-10T08:39:51;47.07;;;12.30;;
21301;SDS011;10810;48.270;9.996;2024-01-10T08:42:20;45.67;;;12.73;;
21301;SDS011;10810;48.270;9.996;2024-01-10T08:44:50;43.93;;;12.93;;
21301;SDS011;10810;48.270;9.996;2024-01-10T08:47:21;43.87;;;12.50;;
21301;SDS011;10810;48.270;9.996;2024-01-10T08:49:58;48.67;;;13.43;;
21301;SDS011;10810;48.270;9.996;2024-01-10T08:52:25;46.63;;;13.07;;
21301;SDS011;10810;48.270;9.996;2024-01-10T08:54:54;46.00;;;13.00;;
21301;SDS011;10810;48.270;9.996;2024-01-10T08:57:23;44.70;;;12.60;;
21301;SDS011;10810;48.270;9.996;2024-01-10T09:03:23;50.30;;;14.27;;
21301;SDS011;10810;48.270;9.996;2024-01-10T09:05:50;46.43;;;14.10;;
21301;SDS011;10810;48.270;9.996;2024-01-10T09:08:25;53.17;;;14.77;;
21301;SDS011;10810;48.270;9.996;2024-01-10T09:10:54;46.70;;;13.70;;
21301;SDS011;10810;48.270;9.996;2024-01-10T09:13:53;50.43;;;14.37;;
21301;SDS011;10810;48.270;9.996;2024-01-10T09:17:00;61.10;;;16.50;;
21301;SDS011;10810;48.270;9.996;2024-01-10T09:19:19;58.90;;;14.97;;
21301;SDS011;10810;48.270;9.996;2024-01-10T09:21:46;48.43;;;13.57;;
21301;SDS011;10810;48.270;9.996;2024-01-10T09:24:15;51.93;;;14.67;;
21301;SDS011;10810;48.270;9.996;2024-01-10T09:26:44;57.13;;;16.83;;
21301;SDS011;10810;48.270;9.996;2024-01-10T09:29:42;51.60;;;15.10;;
21301;SDS011;10810;48.270;9.996;2024-01-10T09:32:12;71.47;;;19.87;;
21301;SDS011;10810;48.270;9.996;2024-01-10T09:34:59;63.40;;;16.90;;
21301;SDS011;10810;48.270;9.996;2024-01-10T09:39:05;56.13;;;16.80;;
21301;SDS011;10810;48.270;9.996;2024-01-10T09:40:27;58.63;;;17.60;;
21301;SDS011;10810;48.270;9.996;2024-01-10T09:42:55;54.60;;;16.93;;
21301;SDS011;10810;48.270;9.996;2024-01-10T09:45:23;62.37;;;17.17;;
21301;SDS011;10810;48.270;9.996;2024-01-10T09:47:52;53.43;;;14.73;;
21301;SDS011;10810;48.270;9.996;2024-01-10T09:50:22;58.17;;;15.93;;
21301;SDS011;10810;48.270;9.996;2024-01-10T09:52:52;77.93;;;19.90;;
21301;SDS011;10810;48.270;9.996;2024-01-10T09:55:20;66.43;;;17.33;;
21301;SDS011;10810;48.270;9.996;2024-01-10T09:57:50;51.30;;;15.03;;
21301;SDS011;10810;48.270;9.996;2024-01-10T10:00:19;54.40;;;14.17;;
21301;SDS011;10810;48.270;9.996;2024-01-10T10:02:48;51.93;;;14.57;;
21301;SDS011;10810;48.270;9.996;2024-01-10T10:05:17;47.57;;;14.27;;
21301;SDS011;10810;48.270;9.996;2024-01-10T10:07:45;49.77;;;13.73;;
21301;SDS011;10810;48.270;9.996;2024-01-10T10:10:13;51.57;;;14.07;;
21301;SDS011;10810;48.270;9.996;2024-01-10T10:12:45;46.70;;;14.00;;
21301;SDS011;10810;48.270;9.996;2024-01-10T10:15:14;52.43;;;14.30;;
21301;SDS011;10810;48.270;9.996;2024-01-10T10:17:45;52.50;;;13.37;;
21301;SDS011;10810;48.270;9.996;2024-01-10T10:20:15;54.03;;;14.73;;
21301;SDS011;10810;48.270;9.996;2024-01-10T10:22:57;51.50;;;14.47;;
21301;SDS011;10810;48.270;9.996;2024-01-10T10:25:26;53.50;;;14.80;;
21301;SDS011;10810;48.270;9.996;2024-01-10T10:27:54;49.10;;;14.93;;
21301;SDS011;10810;48.270;9.996;2024-01-10T10:30:23;51.40;;;15.50;;
21301;SDS011;10810;48.270;9.996;2024-01-10T10:32:51;47.63;;;13.87;;
21301;SDS011;10810;48.270;9.996;2024-01-10T10:35:19;45.27;;;13.03;;
21301;SDS011;10810;48.270;9.996;2024-01-10T10:37:47;45.07;;;12.83;;
21301;SDS011;10810;48.270;9.996;2024-01-10T10:40:14;58.47;;;14.93;;
21301;SDS011;10810;48.270;9.996;2024-01-10T10:42:46;51.80;;;13.73;;
21301;SDS011;10810;48.270;9.996;2024-01-10T10:45:15;51.83;;;14.20;;
21301;SDS011;10810;48.270;9.996;2024-01-10T10:47:43;53.43;;;13.73;;
21301;SDS011;10810;48.270;9.996;2024-01-10T10:50:13;49.97;;;13.17;;
21301;SDS011;10810;48.270;9.996;2024-01-10T10:52:45;50.00;;;14.10;;
21301;SDS011;10810;48.270;9.996;2024-01-10T10:55:13;52.47;;;14.50;;
21301;SDS011;10810;48.270;9.996;2024-01-10T10:57:43;50.70;;;13.13;;
21301;SDS011;10810;48.270;9.996;2024-01-10T11:00:14;47.97;;;13.43;;
21301;SDS011;10810;48.270;9.996;2024-01-10T11:02:45;50.90;;;13.03;;
21301;SDS011;10810;48.270;9.996;2024-01-10T11:05:20;54.60;;;13.47;;
21301;SDS011;10810;48.270;9.996;2024-01-10T11:07:47;42.20;;;13.10;;
21301;SDS011;10810;48.270;9.996;2024-01-10T11:10:18;51.00;;;13.57;;
21301;SDS011;10810;48.270;9.996;2024-01-10T11:13:00;57.20;;;14.77;;
21301;SDS011;10810;48.270;9.996;2024-01-10T11:15:53;55.50;;;14.17;;
21301;SDS011;10810;48.270;9.996;2024-01-10T11:19:01;51.33;;;14.13;;
21301;SDS011;10810;48.270;9.996;2024-01-10T11:21:48;54.60;;;13.77;;
21301;SDS011;10810;48.270;9.996;2024-01-10T11:24:24;55.47;;;15.00;;
21301;SDS011;10810;48.270;9.996;2024-01-10T11:26:58;51.27;;;13.50;;
21301;SDS011;10810;48.270;9.996;2024-01-10T11:29:45;43.27;;;12.53;;
21301;SDS011;10810;48.270;9.996;2024-01-10T11:32:29;49.00;;;12.77;;
21301;SDS011;10810;48.270;9.996;2024-01-10T11:34:58;51.37;;;13.03;;
21301;SDS011;10810;48.270;9.996;2024-01-10T11:40:45;46.43;;;13.10;;
21301;SDS011;10810;48.270;9.996;2024-01-10T11:43:13;51.27;;;12.50;;
21301;SDS011;10810;48.270;9.996;2024-01-10T11:45:54;51.17;;;13.90;;
21301;SDS011;10810;48.270;9.996;2024-01-10T11:48:44;54.53;;;13.60;;
21301;SDS011;10810;48.270;9.996;2024-01-10T11:51:12;52.93;;;13.40;;
21301;SDS011;10810;48.270;9.996;2024-01-10T11:53:49;61.27;;;14.23;;
21301;SDS011;10810;48.270;9.996;2024-01-10T11:56:25;52.10;;;12.80;;
21301;SDS011;10810;48.270;9.996;2024-01-10T11:59:06;48.50;;;13.73;;
21301;SDS011;10810;48.270;9.996;2024-01-10T12:01:36;46.70;;;12.57;;
21301;SDS011;10810;48.270;9.996;2024-01-10T12:04:04;44.03;;;13.13;;
21301;SDS011;10810;48.270;9.996;2024-01-10T12:06:31;44.17;;;12.83;;
21301;SDS011;10810;48.270;9.996;2024-01-10T12:08:59;52.07;;;12.90;;
21301;SDS011;10810;48.270;9.996;2024-01-10T12:11:31;47.63;;;12.80;;
21301;SDS011;10810;48.270;9.996;2024-01-10T12:14:00;43.67;;;12.43;;
21301;SDS011;10810;48.270;9.996;2024-01-10T12:16:28;43.93;;;12.53;;
21301;SDS011;10810;48.270;9.996;2024-01-10T12:19:09;49.10;;;13.10;;
21301;SDS011;10810;48.270;9.996;2024-01-10T12:21:40;47.20;;;13.10;;
21301;SDS011;10810;48.270;9.996;2024-01-10T12:24:08;41.97;;;11.50;;
21301;SDS011;10810;48.270;9.996;2024-01-10T12:26:53;45.73;;;12.97;;
21301;SDS011;10810;48.270;9.996;2024-01-10T12:29:30;45.77;;;12.80;;
21301;SDS011;10810;48.270;9.996;2024-01-10T12:31:57;46.03;;;13.77;;
21301;SDS011;10810;48.270;9.996;2024-01-10T12:34:28;48.87;;;13.53;;
21301;SDS011;10810;48.270;9.996;2024-01-10T12:37:17;51.40;;;12.60;;
21301;SDS011;10810;48.270;9.996;2024-01-10T12:40:16;43.50;;;11.93;;
21301;SDS011;10810;48.270;9.996;2024-01-10T12:42:41;49.13;;;13.33;;
21301;SDS011;10810;48.270;9.996;2024-01-10T12:45:20;50.07;;;13.23;;
21301;SDS011;10810;48.270;9.996;2024-01-10T12:47:47;49.13;;;14.10;;
21301;SDS011;10810;48.270;9.996;2024-01-10T12:50:18;47.40;;;13.03;;
21301;SDS011;10810;48.270;9.996;2024-01-10T12:52:51;50.63;;;12.50;;
21301;SDS011;10810;48.270;9.996;2024-01-10T12:55:21;46.47;;;13.40;;
21301;SDS011;10810;48.270;9.996;2024-01-10T13:00:35;52.80;;;13.83;;
21301;SDS011;10810;48.270;9.996;2024-01-10T13:03:05;46.03;;;12.90;;
21301;SDS011;10810;48.270;9.996;2024-01-10T13:05:34;45.83;;;12.30;;
21301;SDS011;10810;48.270;9.996;2024-01-10T13:08:03;47.70;;;12.93;;
21301;SDS011;10810;48.270;9.996;2024-01-10T13:10:31;45.17;;;12.33;;
21301;SDS011;10810;48.270;9.996;2024-01-10T13:12:59;44.63;;;11.60;;
21301;SDS011;10810;48.270;9.996;2024-01-10T13:15:26;41.67;;;11.90;;
21301;SDS011;10810;48.270;9.996;2024-01-10T13:17:59;44.77;;;12.37;;
21301;SDS011;10810;48.270;9.996;2024-01-10T13:20:28;46.30;;;11.33;;
21301;SDS011;10810;48.270;9.996;2024-01-10T13:22:57;41.67;;;11.60;;
21301;SDS011;10810;48.270;9.996;2024-01-10T13:25:28;39.73;;;11.90;;
21301;SDS011;10810;48.270;9.996;2024-01-10T13:28:12;42.90;;;11.80;;
21301;SDS011;10810;48.270;9.996;2024-01-10T13:30:41;51.83;;;13.50;;
21301;SDS011;10810;48.270;9.996;2024-01-10T13:33:19;45.67;;;12.87;;
21301;SDS011;10810;48.270;9.996;2024-01-10T13:35:58;45.80;;;12.27;;
21301;SDS011;10810;48.270;9.996;2024-01-10T13:38:28;47.67;;;12.77;;
21301;SDS011;10810;48.270;9.996;2024-01-10T13:41:07;45.43;;;12.73;;
21301;SDS011;10810;48.270;9.996;2024-01-10T13:43:41;46.00;;;12.73;;
21301;SDS011;10810;48.270;9.996;2024-01-10T13:46:12;50.23;;;13.07;;
21301;SDS011;10810;48.270;9.996;2024-01-10T13:48:41;47.60;;;13.40;;
21301;SDS011;10810;48.270;9.996;2024-01-10T13:52:50;53.27;;;13.40;;
21301;SDS011;10810;48.270;9.996;2024-01-10T13:54:47;52.60;;;13.80;;
21301;SDS011;10810;48.270;9.996;2024-01-10T13:57:24;50.37;;;13.00;;
21301;SDS011;10810;48.270;9.996;2024-01-10T13:59:52;50.90;;;13.33;;
21301;SDS011;10810;48.270;9.996;2024-01-10T14:02:42;50.93;;;13.93;;
21301;SDS011;10810;48.270;9.996;2024-01-10T14:05:27;47.37;;;13.70;;
21301;SDS011;10810;48.270;9.996;2024-01-10T14:08:12;43.77;;;12.93;;
21301;SDS011;10810;48.270;9.996;2024-01-10T14:10:43;53.23;;;13.10;;
21301;SDS011;10810;48.270;9.996;2024-01-10T14:13:13;49.40;;;12.23;;
21301;SDS011;10810;48.270;9.996;2024-01-10T14:15:42;53.70;;;13.53;;
21301;SDS011;10810;48.270;9.996;2024-01-10T14:18:17;50.83;;;14.03;;
21301;SDS011;10810;48.270;9.996;2024-01-10T14:20:56;48.20;;;14.03;;
21301;SDS011;10810;48.270;9.996;2024-01-10T14:23:35;47.03;;;13.57;;
21301;SDS011;10810;48.270;9.996;2024-01-10T14:26:03;36.77;;;10.87;;
21301;SDS011;10810;48.270;9.996;2024-01-10T14:28:33;37.20;;;11.20;;
21301;SDS011;10810;48.270;9.996;2024-01-10T14:31:16;34.13;;;9.53;;
21301;SDS011;10810;48.270;9.996;2024-01-10T14:33:58;40.80;;;10.53;;
21301;SDS011;10810;48.270;9.996;2024-01-10T14:36:40;36.97;;;10.93;;
21301;SDS011;10810;48.270;9.996;2024-01-10T14:39:14;38.80;;;10.60;;
21301;SDS011;10810;48.270;9.996;2024-01-10T14:42:11;41.60;;;10.60;;
21301;SDS011;10810;48.270;9.996;2024-01-10T14:44:40;35.77;;;9.80;;
21301;SDS011;10810;48.270;9.996;2024-01-10T14:47:07;36.37;;;9.90;;
21301;SDS011;10810;48.270;9.996;2024-01-10T14:49:36;33.83;;;9.40;;
21301;SDS011;10810;48.270;9.996;2024-01-10T14:52:12;41.40;;;11.17;;
21301;SDS011;10810;48.270;9.996;2024-01-10T14:54:39;38.07;;;10.33;;
21301;SDS011;10810;48.270;9.996;2024-01-10T14:57:33;40.77;;;10.70;;
21301;SDS011;10810;48.270;9.996;2024-01-10T15:00:11;39.80;;;10.20;;
21301;SDS011;10810;48.270;9.996;2024-01-10T15:02:39;43.30;;;11.20;;
21301;SDS011;10810;48.270;9.996;2024-01-10T15:05:28;38.23;;;10.60;;
21301;SDS011;10810;48.270;9.996;2024-01-10T15:08:06;40.00;;;10.33;;
21301;SDS011;10810;48.270;9.996;2024-01-10T15:10:34;40.87;;;10.87;;
21301;SDS011;10810;48.270;9.996;2024-01-10T15:13:05;36.17;;;11.10;;
21301;SDS011;10810;48.270;9.996;2024-01-10T15:15:33;44.57;;;12.33;;
21301;SDS011;10810;48.270;9.996;2024-01-10T15:18:00;45.13;;;12.43;;
21301;SDS011;10810;48.270;9.996;2024-01-10T15:20:33;42.63;;;11.90;;
21301;SDS011;10810;48.270;9.996;2024-01-10T15:29:03;46.53;;;12.93;;
21301;SDS011;10810;48.270;9.996;2024-01-10T15:32:03;52.10;;;14.03;;
21301;SDS011;10810;48.270;9.996;2024-01-10T15:34:39;56.57;;;15.40;;
21301;SDS011;10810;48.270;9.996;2024-01-10T15:37:06;48.03;;;14.27;;
21301;SDS011;10810;48.270;9.996;2024-01-10T15:39:42;41.77;;;12.80;;
21301;SDS011;10810;48.270;9.996;2024-01-10T15:42:11;42.37;;;11.97;;
21301;SDS011;10810;48.270;9.996;2024-01-10T15:44:44;46.20;;;12.20;;
21301;SDS011;10810;48.270;9.996;2024-01-10T15:47:17;41.23;;;11.07;;
21301;SDS011;10810;48.270;9.996;2024-01-10T15:50:00;34.80;;;10.43;;
21301;SDS011;10810;48.270;9.996;2024-01-10T15:52:38;39.27;;;9.93;;
21301;SDS011;10810;48.270;9.996;2024-01-10T15:55:08;31.33;;;9.80;;
21301;SDS011;10810;48.270;9.996;2024-01-10T15:57:49;41.27;;;11.37;;
21301;SDS011;10810;48.270;9.996;2024-01-10T16:00:25;37.00;;;10.53;;
21301;SDS011;10810;48.270;9.996;2024-01-10T16:02:57;32.40;;;10.00;;
21301;SDS011;10810;48.270;9.996;2024-01-10T16:05:36;33.80;;;9.63;;
21301;SDS011;10810;48.270;9.996;2024-01-10T16:08:04;39.60;;;10.70;;
21301;SDS011;10810;48.270;9.996;2024-01-10T16:10:36;41.33;;;10.37;;
21301;SDS011;10810;48.270;9.996;2024-01-10T16:13:07;38.77;;;10.27;;
21301;SDS011;10810;48.270;9.996;2024-01-10T16:15:37;38.03;;;11.17;;
21301;SDS011;10810;48.270;9.996;2024-01-10T16:18:08;39.83;;;10.83;;
21301;SDS011;10810;48.270;9.996;2024-01-10T16:20:46;36.23;;;9.67;;
21301;SDS011;10810;48.270;9.996;2024-01-10T16:23:17;37.47;;;9.73;;
21301;SDS011;10810;48.270;9.996;2024-01-10T16:25:46;34.90;;;10.03;;
21301;SDS011;10810;48.270;9.996;2024-01-10T16:28:24;33.67;;;10.40;;
21301;SDS011;10810;48.270;9.996;2024-01-10T16:30:57;39.80;;;10.33;;
21301;SDS011;10810;48.270;9.996;2024-01-10T16:33:26;38.50;;;10.97;;
21301;SDS011;10810;48.270;9.996;2024-01-10T16:35:55;38.83;;;10.10;;
21301;SDS011;10810;48.270;9.996;2024-01-10T16:38:39;37.80;;;10.10;;
21301;SDS011;10810;48.270;9.996;2024-01-10T16:41:15;32.60;;;10.07;;
21301;SDS011;10810;48.270;9.996;2024-01-10T16:43:43;32.10;;;9.67;;
21301;SDS011;10810;48.270;9.996;2024-01-10T16:46:18;40.03;;;9.67;;
21301;SDS011;10810;48.270;9.996;2024-01-10T16:48:45;34.60;;;9.67;;
21301;SDS011;10810;48.270;9.996;2024-01-10T16:51:52;32.03;;;9.30;;
21301;SDS011;10810;48.270;9.996;2024-01-10T16:54:07;36.13;;;9.97;;
21301;SDS011;10810;48.270;9.996;2024-01-10T16:56:46;37.00;;;10.80;;
21301;SDS011;10810;48.270;9.996;2024-01-10T16:59:13;38.27;;;10.60;;
21301;SDS011;10810;48.270;9.996;2024-01-10T17:01:49;37.37;;;11.10;;
21301;SDS011;10810;48.270;9.996;2024-01-10T17:05:58;37.80;;;10.90;;
21301;SDS011;10810;48.270;9.996;2024-01-10T17:07:04;34.27;;;10.00;;
21301;SDS011;10810;48.270;9.996;2024-01-10T17:10:02;39.27;;;10.63;;
21301;SDS011;10810;48.270;9.996;2024-01-10T17:12:41;39.30;;;10.63;;
21301;SDS011;10810;48.270;9.996;2024-01-10T17:15:22;35.00;;;10.10;;
21301;SDS011;10810;48.270;9.996;2024-01-10T17:20:39;34.80;;;9.73;;
21301;SDS011;10810;48.270;9.996;2024-01-10T17:23:20;34.53;;;10.57;;
21301;SDS011;10810;48.270;9.996;2024-01-10T17:26:18;38.80;;;10.47;;
21301;SDS011;10810;48.270;9.996;2024-01-10T17:28:43;43.03;;;10.87;;
21301;SDS011;10810;48.270;9.996;2024-01-10T17:31:11;32.80;;;10.67;;